sensor_id;sensor_type;location;lat;lon;timestamp;pressure;altitude;pressure_sealevel;temperature;humidity
23016;BME280;11674;52.428;13.584;2023-03-14T00:01:36;98981.13;;;14.62;84.26
23016;BME280;11674;52.428;13.584;2023-03-14T00:06:44;98987.06;;;14.60;84.06
23016;BME280;11674;52.428;13.584;2023-03-14T00:11:51;98985.81;;;14.58;84.43
23016;BME280;11674;52.428;13.584;2023-03-14T00:16:58;98984.91;;;14.54;84.38
23016;BME280;11674;52.428;13.584;2023-03-14T00:22:04;98952.41;;;14.46;84.22
23016;BME280;11674;52.428;13.584;2023-03-14T00:27:12;98935.47;;;14.39;84.33
23016;BME280;11674;52.428;13.584;2023-03-14T00:32:19;98922.19;;;14.32;83.98
23016;BME280;11674;52.428;13.584;2023-03-14T00:37:27;98923.25;;;14.28;84.11
23016;BME280;11674;52.428;13.584;2023-03-14T00:42:34;98903.44;;;14.17;84.08
23016;BME280;11674;52.428;13.584;2023-03-14T00:47:41;98908.47;;;14.12;84.16
23016;BME280;11674;52.428;13.584;2023-03-14T00:52:48;98912.25;;;14.04;84.02
23016;BME280;11674;52.428;13.584;2023-03-14T00:57:55;98916.91;;;14.00;84.12
23016;BME280;11674;52.428;13.584;2023-03-14T01:03:02;98890.13;;;13.95;84.22
23016;BME280;11674;52.428;13.584;2023-03-14T01:08:09;98875.63;;;13.90;84.39
23016;BME280;11674;52.428;13.584;2023-03-14T01:13:16;98879.50;;;13.85;84.16
23016;BME280;11674;52.428;13.584;2023-03-14T01:18:23;98884.59;;;13.83;84.41
23016;BME280;11674;52.428;13.584;2023-03-14T01:23:30;98915.25;;;13.83;84.24
23016;BME280;11674;52.428;13.584;2023-03-14T01:28:37;98940.47;;;13.87;84.39
23016;BME280;11674;52.428;13.584;2023-03-14T01:33:45;98937.31;;;13.88;84.48
23016;BME280;11674;52.428;13.584;2023-03-14T01:38:52;98947.41;;;13.93;84.80
23016;BME280;11674;52.428;13.584;2023-03-14T01:43:59;98948.66;;;13.95;84.84
23016;BME280;11674;52.428;13.584;2023-03-14T01:59:32;98962.69;;;13.99;84.66
23016;BME280;11674;52.428;13.584;2023-03-14T02:04:40;98958.16;;;13.94;84.68
23016;BME280;11674;52.428;13.584;2023-03-14T02:09:50;98946.94;;;13.91;84.67
23016;BME280;11674;52.428;13.584;2023-03-14T02:15:01;98928.50;;;13.86;84.76
23016;BME280;11674;52.428;13.584;2023-03-14T02:21:00;98920.31;;;13.78;84.48
23016;BME280;11674;52.428;13.584;2023-03-14T02:26:15;98913.38;;;13.72;84.43
23016;BME280;11674;52.428;13.584;2023-03-14T02:31:26;98911.19;;;13.65;84.38
23016;BME280;11674;52.428;13.584;2023-03-14T02:36:33;98908.75;;;13.64;84.55
23016;BME280;11674;52.428;13.584;2023-03-14T02:41:41;98909.69;;;13.68;84.60
23016;BME280;11674;52.428;13.584;2023-03-14T02:46:48;98905.28;;;13.67;84.68
23016;BME280;11674;52.428;13.584;2023-03-14T02:51:55;98890.44;;;13.63;84.67
23016;BME280;11674;52.428;13.584;2023-03-14T02:57:03;98885.59;;;13.60;84.47
23016;BME280;11674;52.428;13.584;2023-03-14T03:02:10;98869.56;;;13.57;84.71
23016;BME280;11674;52.428;13.584;2023-03-14T03:07:17;98863.09;;;13.53;84.69
23016;BME280;11674;52.428;13.584;2023-03-14T03:12:24;98848.72;;;13.51;84.80
23016;BME280;11674;52.428;13.584;2023-03-14T03:17:31;98825.97;;;13.49;84.52
23016;BME280;11674;52.428;13.584;2023-03-14T03:22:39;98795.22;;;13.45;84.34
23016;BME280;11674;52.428;13.584;2023-03-14T03:27:47;98801.88;;;13.41;84.62
23016;BME280;11674;52.428;13.584;2023-03-14T03:32:54;98815.47;;;13.42;84.78
23016;BME280;11674;52.428;13.584;2023-03-14T03:38:02;98828.66;;;13.45;84.48
23016;BME280;11674;52.428;13.584;2023-03-14T03:43:09;98835.06;;;13.46;84.42
23016;BME280;11674;52.428;13.584;2023-03-14T03:48:18;98839.44;;;13.47;84.87
23016;BME280;11674;52.428;13.584;2023-03-14T03:53:25;98828.03;;;13.52;84.66
23016;BME280;11674;52.428;13.584;2023-03-14T03:58:32;98836.06;;;13.53;84.86
23016;BME280;11674;52.428;13.584;2023-03-14T04:03:39;98820.97;;;13.54;84.38
23016;BME280;11674;52.428;13.584;2023-03-14T04:08:46;98833.63;;;13.52;84.89
23016;BME280;11674;52.428;13.584;2023-03-14T04:14:31;98811.69;;;13.50;84.50
23016;BME280;11674;52.428;13.584;2023-03-14T04:19:45;98833.97;;;13.50;84.84
23016;BME280;11674;52.428;13.584;2023-03-14T04:24:54;98815.28;;;13.51;84.59
23016;BME280;11674;52.428;13.584;2023-03-14T04:30:01;98800.91;;;13.49;84.52
23016;BME280;11674;52.428;13.584;2023-03-14T04:35:33;98808.81;;;13.47;84.82
23016;BME280;11674;52.428;13.584;2023-03-14T04:40:43;98785.28;;;13.44;84.50
23016;BME280;11674;52.428;13.584;2023-03-14T04:45:56;98780.44;;;13.41;84.31
23016;BME280;11674;52.428;13.584;2023-03-14T04:51:03;98777.53;;;13.38;84.51
23016;BME280;11674;52.428;13.584;2023-03-14T04:56:10;98775.91;;;13.37;84.34
23016;BME280;11674;52.428;13.584;2023-03-14T05:01:17;98759.94;;;13.34;84.30
23016;BME280;11674;52.428;13.584;2023-03-14T05:06:43;98761.00;;;13.29;84.46
23016;BME280;11674;52.428;13.584;2023-03-14T05:12:08;98775.19;;;13.24;84.37
23016;BME280;11674;52.428;13.584;2023-03-14T05:17:34;98770.44;;;13.25;84.46
23016;BME280;11674;52.428;13.584;2023-03-14T05:23:01;98754.06;;;13.23;84.47
23016;BME280;11674;52.428;13.584;2023-03-14T05:28:20;98745.63;;;13.20;84.32
23016;BME280;11674;52.428;13.584;2023-03-14T05:33:53;98747.50;;;13.16;84.36
23016;BME280;11674;52.428;13.584;2023-03-14T05:39:35;98749.03;;;13.13;84.46
23016;BME280;11674;52.428;13.584;2023-03-14T05:44:57;98749.84;;;13.14;84.69
23016;BME280;11674;52.428;13.584;2023-03-14T05:50:22;98756.19;;;13.14;84.60
23016;BME280;11674;52.428;13.584;2023-03-14T05:55:43;98754.81;;;13.20;84.71
23016;BME280;11674;52.428;13.584;2023-03-14T06:00:56;98750.13;;;13.24;84.30
23016;BME280;11674;52.428;13.584;2023-03-14T06:06:15;98739.09;;;13.28;84.68
23016;BME280;11674;52.428;13.584;2023-03-14T06:11:22;98735.94;;;13.29;84.45
23016;BME280;11674;52.428;13.584;2023-03-14T06:16:30;98749.59;;;13.34;84.34
23016;BME280;11674;52.428;13.584;2023-03-14T06:21:45;98751.19;;;13.35;83.98
23016;BME280;11674;52.428;13.584;2023-03-14T06:26:52;98747.28;;;13.36;84.04
23016;BME280;11674;52.428;13.584;2023-03-14T06:31:59;98755.38;;;13.41;83.70
23016;BME280;11674;52.428;13.584;2023-03-14T06:37:06;98759.84;;;13.46;83.65
23016;BME280;11674;52.428;13.584;2023-03-14T06:42:13;98761.47;;;13.47;83.61
23016;BME280;11674;52.428;13.584;2023-03-14T06:47:20;98756.44;;;13.52;83.58
23016;BME280;11674;52.428;13.584;2023-03-14T06:52:27;98760.94;;;13.57;83.62
23016;BME280;11674;52.428;13.584;2023-03-14T06:57:34;98772.16;;;13.60;83.51
23016;BME280;11674;52.428;13.584;2023-03-14T07:02:41;98788.69;;;13.69;83.93
23016;BME280;11674;52.428;13.584;2023-03-14T07:08:17;98797.34;;;13.79;83.91
23016;BME280;11674;52.428;13.584;2023-03-14T07:13:24;98806.22;;;13.85;83.89
23016;BME280;11674;52.428;13.584;2023-03-14T07:18:36;98811.25;;;13.95;83.71
23016;BME280;11674;52.428;13.584;2023-03-14T07:23:43;98815.31;;;13.97;83.42
23016;BME280;11674;52.428;13.584;2023-03-14T07:28:52;98810.53;;;13.98;83.19
23016;BME280;11674;52.428;13.584;2023-03-14T07:33:59;98808.28;;;14.03;83.45
23016;BME280;11674;52.428;13.584;2023-03-14T07:39:10;98822.38;;;14.10;83.10
23016;BME280;11674;52.428;13.584;2023-03-14T07:44:37;98812.50;;;14.13;83.09
23016;BME280;11674;52.428;13.584;2023-03-14T07:49:44;98818.81;;;14.10;83.00
23016;BME280;11674;52.428;13.584;2023-03-14T07:54:51;98825.56;;;14.09;82.94
23016;BME280;11674;52.428;13.584;2023-03-14T07:59:58;98823.94;;;14.08;83.08
23016;BME280;11674;52.428;13.584;2023-03-14T08:05:13;98817.28;;;14.12;83.08
23016;BME280;11674;52.428;13.584;2023-03-14T08:10:20;98801.88;;;14.18;83.17
23016;BME280;11674;52.428;13.584;2023-03-14T08:15:29;98794.41;;;14.38;83.39
23016;BME280;11674;52.428;13.584;2023-03-14T08:20:36;98806.47;;;14.61;83.42
23016;BME280;11674;52.428;13.584;2023-03-14T08:25:43;98791.88;;;14.67;83.09
23016;BME280;11674;52.428;13.584;2023-03-14T08:30:50;98806.06;;;14.78;83.29
23016;BME280;11674;52.428;13.584;2023-03-14T08:36:00;98803.41;;;14.85;82.63
23016;BME280;11674;52.428;13.584;2023-03-14T08:41:08;98812.97;;;14.84;82.75
23016;BME280;11674;52.428;13.584;2023-03-14T08:46:15;98816.47;;;14.81;82.34
23016;BME280;11674;52.428;13.584;2023-03-14T08:51:22;98817.06;;;14.71;82.14
23016;BME280;11674;52.428;13.584;2023-03-14T08:56:29;98811.19;;;14.76;82.24
23016;BME280;11674;52.428;13.584;2023-03-14T09:01:36;98816.19;;;14.86;82.28
23016;BME280;11674;52.428;13.584;2023-03-14T09:06:43;98813.03;;;14.87;81.49
23016;BME280;11674;52.428;13.584;2023-03-14T09:11:50;98809.00;;;14.85;81.45
23016;BME280;11674;52.428;13.584;2023-03-14T09:16:57;98806.50;;;14.80;80.70
23016;BME280;11674;52.428;13.584;2023-03-14T09:22:04;98804.81;;;14.94;80.87
23016;BME280;11674;52.428;13.584;2023-03-14T09:27:11;98795.25;;;14.95;80.54
23016;BME280;11674;52.428;13.584;2023-03-14T09:32:18;98790.69;;;15.06;80.82
23016;BME280;11674;52.428;13.584;2023-03-14T09:37:25;98780.41;;;15.10;80.59
23016;BME280;11674;52.428;13.584;2023-03-14T09:42:32;98797.81;;;15.23;80.69
23016;BME280;11674;52.428;13.584;2023-03-14T09:47:39;98796.53;;;15.36;80.36
23016;BME280;11674;52.428;13.584;2023-03-14T09:52:50;98791.28;;;15.57;79.86
23016;BME280;11674;52.428;13.584;2023-03-14T09:58:00;98789.13;;;15.92;80.09
23016;BME280;11674;52.428;13.584;2023-03-14T10:08:19;98779.53;;;16.15;80.04
23016;BME280;11674;52.428;13.584;2023-03-14T10:13:27;98801.50;;;16.13;79.85
23016;BME280;11674;52.428;13.584;2023-03-14T10:18:34;98800.13;;;16.04;79.08
23016;BME280;11674;52.428;13.584;2023-03-14T10:23:41;98800.69;;;15.90;78.55
23016;BME280;11674;52.428;13.584;2023-03-14T10:28:55;98807.84;;;15.88;78.63
23016;BME280;11674;52.428;13.584;2023-03-14T10:34:17;98793.31;;;15.79;77.49
23016;BME280;11674;52.428;13.584;2023-03-14T10:39:32;98803.63;;;15.75;77.26
23016;BME280;11674;52.428;13.584;2023-03-14T10:44:41;98799.59;;;15.72;77.43
23016;BME280;11674;52.428;13.584;2023-03-14T10:49:49;98797.56;;;15.73;77.21
23016;BME280;11674;52.428;13.584;2023-03-14T10:55:02;98786.09;;;15.78;77.55
23016;BME280;11674;52.428;13.584;2023-03-14T11:00:15;98795.34;;;15.82;77.71
23016;BME280;11674;52.428;13.584;2023-03-14T11:05:41;98799.22;;;15.74;77.10
23016;BME280;11674;52.428;13.584;2023-03-14T11:10:54;98802.75;;;15.71;77.84
23016;BME280;11674;52.428;13.584;2023-03-14T11:21:40;98793.88;;;15.65;78.37
23016;BME280;11674;52.428;13.584;2023-03-14T11:32:38;98799.78;;;15.60;78.91
23016;BME280;11674;52.428;13.584;2023-03-14T11:38:05;98798.13;;;15.59;78.24
23016;BME280;11674;52.428;13.584;2023-03-14T11:43:23;98804.97;;;15.62;78.36
23016;BME280;11674;52.428;13.584;2023-03-14T11:48:39;98797.97;;;15.71;78.86
23016;BME280;11674;52.428;13.584;2023-03-14T12:05:31;98791.19;;;15.50;77.93
23016;BME280;11674;52.428;13.584;2023-03-14T12:10:53;98792.31;;;15.07;77.65
23016;BME280;11674;52.428;13.584;2023-03-14T12:16:05;98794.72;;;14.52;77.05
23016;BME280;11674;52.428;13.584;2023-03-14T12:21:13;98803.41;;;14.16;78.10
23016;BME280;11674;52.428;13.584;2023-03-14T12:26:22;98793.03;;;13.82;77.77
23016;BME280;11674;52.428;13.584;2023-03-14T13:03:48;98737.41;;;15.56;79.90
23016;BME280;11674;52.428;13.584;2023-03-14T13:08:57;98733.56;;;15.90;80.18
23016;BME280;11674;52.428;13.584;2023-03-14T13:14:09;98730.78;;;15.90;79.13
23016;BME280;11674;52.428;13.584;2023-03-14T13:19:22;98725.44;;;15.82;78.30
23016;BME280;11674;52.428;13.584;2023-03-14T13:24:34;98706.75;;;15.86;78.29
23016;BME280;11674;52.428;13.584;2023-03-14T13:29:41;98722.88;;;15.96;78.77
23016;BME280;11674;52.428;13.584;2023-03-14T13:34:48;98717.28;;;15.96;78.25
23016;BME280;11674;52.428;13.584;2023-03-14T13:39:56;98738.75;;;15.66;77.15
23016;BME280;11674;52.428;13.584;2023-03-14T13:45:03;98749.75;;;15.78;78.32
23016;BME280;11674;52.428;13.584;2023-03-14T13:50:17;98735.47;;;16.09;78.07
23016;BME280;11674;52.428;13.584;2023-03-14T13:55:24;98734.88;;;16.22;78.39
23016;BME280;11674;52.428;13.584;2023-03-14T14:00:31;98724.53;;;16.52;79.04
23016;BME280;11674;52.428;13.584;2023-03-14T14:05:38;98724.50;;;16.82;78.93
23016;BME280;11674;52.428;13.584;2023-03-14T14:10:47;98712.34;;;17.04;79.16
23016;BME280;11674;52.428;13.584;2023-03-14T14:15:54;98713.66;;;16.77;79.12
23016;BME280;11674;52.428;13.584;2023-03-14T14:21:02;98702.09;;;16.82;79.60
23016;BME280;11674;52.428;13.584;2023-03-14T14:26:16;98704.53;;;16.83;79.21
23016;BME280;11674;52.428;13.584;2023-03-14T14:31:23;98696.78;;;16.70;78.08
23016;BME280;11674;52.428;13.584;2023-03-14T14:36:38;98695.38;;;16.90;76.68
23016;BME280;11674;52.428;13.584;2023-03-14T14:41:49;98698.66;;;16.95;76.54
23016;BME280;11674;52.428;13.584;2023-03-14T14:46:56;98718.50;;;16.80;76.63
23016;BME280;11674;52.428;13.584;2023-03-14T14:52:16;98711.84;;;16.62;76.27
23016;BME280;11674;52.428;13.584;2023-03-14T14:57:28;98702.22;;;16.59;77.00
23016;BME280;11674;52.428;13.584;2023-03-14T15:07:44;98696.56;;;16.26;77.21
23016;BME280;11674;52.428;13.584;2023-03-14T15:12:51;98686.66;;;16.06;77.21
23016;BME280;11674;52.428;13.584;2023-03-14T15:17:58;98694.16;;;15.99;77.88
23016;BME280;11674;52.428;13.584;2023-03-14T15:23:13;98696.44;;;15.90;77.87
23016;BME280;11674;52.428;13.584;2023-03-14T15:28:23;98693.41;;;15.76;77.83
23016;BME280;11674;52.428;13.584;2023-03-14T15:33:30;98777.56;;;15.48;77.86
23016;BME280;11674;52.428;13.584;2023-03-14T15:38:37;98831.31;;;13.85;73.31
23016;BME280;11674;52.428;13.584;2023-03-14T15:43:44;98897.47;;;11.49;73.75
23016;BME280;11674;52.428;13.584;2023-03-14T15:48:51;98982.59;;;10.17;76.50
23016;BME280;11674;52.428;13.584;2023-03-14T15:53:58;98995.91;;;9.35;77.38
23016;BME280;11674;52.428;13.584;2023-03-14T15:59:05;99021.06;;;8.83;78.48
23016;BME280;11674;52.428;13.584;2023-03-14T16:04:12;99068.09;;;8.44;78.92
23016;BME280;11674;52.428;13.584;2023-03-14T16:09:19;99115.78;;;7.83;78.61
23016;BME280;11674;52.428;13.584;2023-03-14T16:14:26;99164.47;;;7.03;78.04
23016;BME280;11674;52.428;13.584;2023-03-14T16:19:33;99202.31;;;6.25;78.57
23016;BME280;11674;52.428;13.584;2023-03-14T16:24:40;99240.75;;;5.75;79.18
23016;BME280;11674;52.428;13.584;2023-03-14T16:29:47;99278.97;;;5.11;78.68
23016;BME280;11674;52.428;13.584;2023-03-14T16:34:54;99311.88;;;4.64;79.38
23016;BME280;11674;52.428;13.584;2023-03-14T16:40:01;99319.75;;;4.37;79.98
23016;BME280;11674;52.428;13.584;2023-03-14T16:45:08;99356.69;;;4.16;80.28
23016;BME280;11674;52.428;13.584;2023-03-14T16:50:15;99384.22;;;3.96;80.43
23016;BME280;11674;52.428;13.584;2023-03-14T16:55:22;99416.88;;;3.87;80.69
23016;BME280;11674;52.428;13.584;2023-03-14T17:00:37;99459.66;;;3.83;81.03
23016;BME280;11674;52.428;13.584;2023-03-14T17:05:49;99481.03;;;3.86;81.42
23016;BME280;11674;52.428;13.584;2023-03-14T17:10:56;99521.88;;;3.98;81.63
23016;BME280;11674;52.428;13.584;2023-03-14T17:16:03;99527.88;;;4.05;81.64
23016;BME280;11674;52.428;13.584;2023-03-14T17:21:10;99561.34;;;4.12;82.03
23016;BME280;11674;52.428;13.584;2023-03-14T17:26:17;99601.63;;;4.26;82.20
23016;BME280;11674;52.428;13.584;2023-03-14T17:31:24;99617.81;;;4.33;81.90
23016;BME280;11674;52.428;13.584;2023-03-14T17:36:31;99637.00;;;4.38;82.22
23016;BME280;11674;52.428;13.584;2023-03-14T17:41:38;99646.03;;;4.43;82.25
23016;BME280;11674;52.428;13.584;2023-03-14T17:46:45;99650.72;;;4.48;82.21
23016;BME280;11674;52.428;13.584;2023-03-14T17:51:52;99669.88;;;4.58;82.36
23016;BME280;11674;52.428;13.584;2023-03-14T17:56:59;99690.19;;;4.62;82.14
23016;BME280;11674;52.428;13.584;2023-03-14T18:02:08;99706.41;;;4.63;82.32
23016;BME280;11674;52.428;13.584;2023-03-14T18:07:15;99722.59;;;4.70;82.34
23016;BME280;11674;52.428;13.584;2023-03-14T18:12:22;99758.81;;;4.77;82.64
23016;BME280;11674;52.428;13.584;2023-03-14T18:17:29;99758.53;;;4.88;82.61
23016;BME280;11674;52.428;13.584;2023-03-14T18:22:36;99792.88;;;4.96;83.20
23016;BME280;11674;52.428;13.584;2023-03-14T18:27:43;99806.28;;;5.02;83.17
23016;BME280;11674;52.428;13.584;2023-03-14T18:32:50;99794.19;;;5.03;83.38
23016;BME280;11674;52.428;13.584;2023-03-14T18:37:57;99820.84;;;5.08;83.28
23016;BME280;11674;52.428;13.584;2023-03-14T18:43:04;99836.50;;;5.12;83.32
23016;BME280;11674;52.428;13.584;2023-03-14T18:48:11;99846.38;;;5.18;83.22
23016;BME280;11674;52.428;13.584;2023-03-14T18:53:18;99849.38;;;5.22;83.12
23016;BME280;11674;52.428;13.584;2023-03-14T18:58:25;99868.09;;;5.25;83.40
23016;BME280;11674;52.428;13.584;2023-03-14T19:03:33;99886.22;;;5.31;83.49
23016;BME280;11674;52.428;13.584;2023-03-14T19:08:40;99896.94;;;5.37;83.71
23016;BME280;11674;52.428;13.584;2023-03-14T19:13:47;99909.28;;;5.40;83.41
23016;BME280;11674;52.428;13.584;2023-03-14T19:18:54;99922.78;;;5.41;83.46
23016;BME280;11674;52.428;13.584;2023-03-14T19:24:02;99932.09;;;5.40;83.39
23016;BME280;11674;52.428;13.584;2023-03-14T19:29:09;99945.03;;;5.40;83.49
23016;BME280;11674;52.428;13.584;2023-03-14T19:34:16;99951.66;;;5.39;83.57
23016;BME280;11674;52.428;13.584;2023-03-14T19:39:23;99979.69;;;5.41;83.51
23016;BME280;11674;52.428;13.584;2023-03-14T19:44:30;99993.41;;;5.46;83.72
23016;BME280;11674;52.428;13.584;2023-03-14T19:49:37;100004.41;;;5.51;83.49
23016;BME280;11674;52.428;13.584;2023-03-14T19:54:44;100004.69;;;5.54;83.70
23016;BME280;11674;52.428;13.584;2023-03-14T19:59:54;100033.28;;;5.58;83.51
23016;BME280;11674;52.428;13.584;2023-03-14T20:05:01;100050.06;;;5.62;83.54
23016;BME280;11674;52.428;13.584;2023-03-14T20:10:09;100056.66;;;5.61;83.48
23016;BME280;11674;52.428;13.584;2023-03-14T20:15:17;100077.84;;;5.60;83.23
23016;BME280;11674;52.428;13.584;2023-03-14T20:20:25;100089.66;;;5.56;83.20
23016;BME280;11674;52.428;13.584;2023-03-14T20:25:32;100096.81;;;5.52;83.09
23016;BME280;11674;52.428;13.584;2023-03-14T20:30:42;100105.31;;;5.45;82.92
23016;BME280;11674;52.428;13.584;2023-03-14T20:35:58;100118.25;;;5.40;82.91
23016;BME280;11674;52.428;13.584;2023-03-14T20:41:05;100139.97;;;5.36;82.79
23016;BME280;11674;52.428;13.584;2023-03-14T20:46:12;100141.03;;;5.30;82.86
23016;BME280;11674;52.428;13.584;2023-03-14T20:51:22;100161.69;;;5.28;82.95
23016;BME280;11674;52.428;13.584;2023-03-14T20:56:32;100165.78;;;5.25;83.11
23016;BME280;11674;52.428;13.584;2023-03-14T21:01:39;100178.16;;;5.23;82.89
23016;BME280;11674;52.428;13.584;2023-03-14T21:06:47;100173.72;;;5.22;83.05
23016;BME280;11674;52.428;13.584;2023-03-14T21:11:54;100191.91;;;5.23;82.90
23016;BME280;11674;52.428;13.584;2023-03-14T21:17:01;100195.72;;;5.22;83.12
23016;BME280;11674;52.428;13.584;2023-03-14T21:22:08;100203.16;;;5.21;82.84
23016;BME280;11674;52.428;13.584;2023-03-14T21:27:15;100211.66;;;5.20;82.89
23016;BME280;11674;52.428;13.584;2023-03-14T21:32:22;100228.16;;;5.20;82.79
23016;BME280;11674;52.428;13.584;2023-03-14T21:37:29;100244.63;;;5.15;82.97
23016;BME280;11674;52.428;13.584;2023-03-14T21:42:36;100256.19;;;5.12;83.00
23016;BME280;11674;52.428;13.584;2023-03-14T21:47:43;100268.22;;;5.06;82.82
23016;BME280;11674;52.428;13.584;2023-03-14T21:52:51;100279.47;;;4.99;82.66
23016;BME280;11674;52.428;13.584;2023-03-14T21:57:58;100278.31;;;4.95;82.68
23016;BME280;11674;52.428;13.584;2023-03-14T22:03:05;100291.78;;;4.92;82.82
23016;BME280;11674;52.428;13.584;2023-03-14T22:08:14;100287.94;;;4.93;82.87
23016;BME280;11674;52.428;13.584;2023-03-14T22:13:23;100288.69;;;4.83;82.73
23016;BME280;11674;52.428;13.584;2023-03-14T22:18:30;100290.78;;;4.71;82.60
23016;BME280;11674;52.428;13.584;2023-03-14T22:23:37;100309.69;;;4.63;82.61
23016;BME280;11674;52.428;13.584;2023-03-14T22:28:44;100310.69;;;4.52;82.61
23016;BME280;11674;52.428;13.584;2023-03-14T22:33:51;100319.44;;;4.44;82.69
23016;BME280;11674;52.428;13.584;2023-03-14T22:38:58;100331.16;;;4.39;82.89
23016;BME280;11674;52.428;13.584;2023-03-14T22:44:05;100347.34;;;4.36;82.77
23016;BME280;11674;52.428;13.584;2023-03-14T22:49:12;100363.00;;;4.35;82.92
23016;BME280;11674;52.428;13.584;2023-03-14T22:54:19;100371.00;;;4.42;83.10
23016;BME280;11674;52.428;13.584;2023-03-14T22:59:26;100388.16;;;4.54;83.26
23016;BME280;11674;52.428;13.584;2023-03-14T23:04:33;100390.41;;;4.62;83.36
23016;BME280;11674;52.428;13.584;2023-03-14T23:09:40;100392.91;;;4.63;83.20
23016;BME280;11674;52.428;13.584;2023-03-14T23:14:47;100392.66;;;4.65;83.19
23016;BME280;11674;52.428;13.584;2023-03-14T23:19:54;100398.41;;;4.63;82.98
23016;BME280;11674;52.428;13.584;2023-03-14T23:25:02;100409.09;;;4.60;82.79
23016;BME280;11674;52.428;13.584;2023-03-14T23:35:17;100421.50;;;4.41;82.96
23016;BME280;11674;52.428;13.584;2023-03-14T23:40:24;100429.09;;;4.29;82.78
23016;BME280;11674;52.428;13.584;2023-03-14T23:45:31;100427.31;;;4.18;82.75
23016;BME280;11674;52.428;13.584;2023-03-14T23:50:38;100444.50;;;4.08;82.76
23016;BME280;11674;52.428;13.584;2023-03-14T23:55:45;100451.50;;;3.99;82.88
